KFTY/FTY METAR and TAF weather

Enter ICAO airport designator
Station Type Date Time Source
KFTY METAR 2019/04/20 17:53 UTC NOAA

KFTY 201753Z 23008KT 10SM -RA FEW020 BKN026 OVC048 09/07 A2979 RMK AO2 RAB1656 SLP089 P0001 60001 T00940072 10100 20067 51015


Station Type Date Time Source
KFTY Decoded METAR 2019/04/20 17:53 UTC NOAA

ATLANTA FULTON COUNTY AIRPORT , GA, United States (KFTY) 33-47N 84-31W 263M
Apr 20, 2019 - 01:53 PM EDT / 2019.04.20 1753 UTC
Wind: from the SW (230 degrees) at 9 MPH (8 KT):0
Visibility: 10 mile(s):0
Sky conditions: overcast
Weather: light rain
Precipitation last hour: 0.01 inches
Temperature: 48.9 F (9.4 C)
Dew Point: 45.0 F (7.2 C)
Relative Humidity: 86%
Pressure (altimeter): 29.79 in. Hg (1008 hPa)
Pressure tendency: 0.04 inches (1.5 hPa) higher than three hours ago
ob: KFTY 201753Z 23008KT 10SM -RA FEW020 BKN026 OVC048 09/07 A2979 RMK AO2 RAB1656 SLP089 P0001 60001 T00940072 10100 20067 51015
cycle: 18

Station Type Date Time Source
KFTY TAF 2019/04/20 18:42 UTC NOAA

TAF KFTY 201741Z 2018/2118 26010G18KT P6SM BKN025 BKN045
TEMPO 2018/2020 4SM -SHRA
FM202000 26012KT P6SM SCT025 BKN045
FM210000 28008KT P6SM BKN045
FM210300 29007KT P6SM SCT060
FM211200 30007KT P6SM SKC
FM211500 32010G16KT P6SM SKC

Example: see airport list